aviador You're here:

OIGG Decoded Metar

RASHT in IRAN
Report Time2018-04-21 07:30:00
UTC Time2018-04-21 07:59:34
Flight Rules vfr VFR
WindCalm
Visibility8000 m
Phenomena:N/A
Clouds:Scattered CB 012 Hf
Scattered 020 Hf
Broken 080 Hf
Expected CloudBase > 800 ft AGL from Temp-Dew spread
Ceiling8,000 ft
Temp14°C (ISA -1)
Dew Point12°C (88% RH)
QNH1011 hPa
Density Alt82 ft
Elevation-43 ft
Report Wrong Elevation
Raw Report
OIGG 210730Z 00000KT 8000 SCT012CB SCT020 BKN080 14/12 Q1011=

Extra information for OIGG:More info

Metar Taf Metar & Taf Last 4 Metars F.Rules Stats Wind Profile Meteogram Temp Stats Airport Information Weather charts Add Link Nearby VenuesMetar ALERT Operation Metar Decoded Social comments